Time;durP1;ratioP1;P1;durP2;ratioP2;P2;SDS_P1;SDS_P2;PMS_P1;PMS_P2;Temp;Humidity;BMP_temperature;BMP_pressure;BME280_temperature;BME280_humidity;BME280_pressure;Samples;Min_cycle;Max_cycle;Signal;HPM_P1;HPM_P2
2022/07/26 00:00:18;;;;;;;;;;;;;;;32.40;20.10;98646.06;4422498;32;33832;-90
2022/07/26 00:02:46;;;;;;;;;;;;;;;32.30;20.26;98635.22;4409517;32;32892;-91
2022/07/26 00:05:15;;;;;;;;;;;;;;;32.19;20.26;98635.28;4421954;32;34120;-89
2022/07/26 00:07:42;;;;;;;;;;;;;;;32.13;20.29;98633.16;4422152;32;33567;-90
2022/07/26 00:10:10;;;;;;;;;;;;;;;31.96;20.51;98632.72;4418720;32;34123;-90
2022/07/26 00:12:37;;;;;;;;;;;;;;;32.00;20.43;98627.94;4394167;32;33793;-89
2022/07/26 00:15:06;;;;;;;;;;;;;;;32.16;20.26;98627.50;4406845;32;34285;-90
2022/07/26 00:17:33;;;;;;;;;;;;;;;32.18;20.26;98620.19;4407914;32;34561;-90
2022/07/26 00:20:01;;;;;;;;;;;;;;;32.20;20.34;98623.56;4408016;32;34418;-90
2022/07/26 00:22:34;;;;;;;;;;;;;;;32.21;20.30;98614.56;4422446;32;33586;-90
2022/07/26 00:25:02;;;;;;;;;;;;;;;32.14;20.38;98613.37;4410849;32;34134;-90
2022/07/26 00:27:29;;;;;;;;;;;;;;;32.13;20.31;98612.53;4410643;32;33639;-90
2022/07/26 00:29:57;;;;;;;;;;;;;;;32.01;20.45;98608.19;4423640;32;34149;-90
2022/07/26 00:32:24;;;;;;;;;;;;;;;31.98;20.51;98608.47;4423611;32;33984;-90
2022/07/26 00:34:51;;;;;;;;;;;;;;;32.02;20.40;98609.06;4423545;32;34306;-90
2022/07/26 00:37:19;;;;;;;;;;;;;;;31.86;20.63;98610.38;4406170;32;32368;-90
2022/07/26 00:39:47;;;;;;;;;;;;;;;31.73;20.75;98599.75;4422455;32;33811;-90
2022/07/26 00:42:15;;;;;;;;;;;;;;;31.78;20.68;98603.88;4422042;32;33912;-90
2022/07/26 00:44:43;;;;;;;;;;;;;;;31.90;20.64;98601.09;4408252;32;33988;-89
2022/07/26 00:47:11;;;;;;;;;;;;;;;31.84;20.75;98606.91;4408135;32;33636;-90
2022/07/26 00:49:39;;;;;;;;;;;;;;;31.80;20.73;98602.78;4408246;32;33746;-90
2022/07/26 00:52:06;;;;;;;;;;;;;;;31.73;20.66;98609.62;4429606;32;33920;-90
2022/07/26 00:54:34;;;;;;;;;;;;;;;31.79;20.68;98600.25;4423663;32;34695;-90
2022/07/26 00:57:02;;;;;;;;;;;;;;;31.77;20.88;98597.69;4423476;32;33246;-91
2022/07/26 00:59:29;;;;;;;;;;;;;;;31.57;20.96;98593.13;4423669;32;35128;-90
2022/07/26 01:01:57;;;;;;;;;;;;;;;31.55;21.00;98592.41;4423417;32;34349;-90
2022/07/26 01:04:24;;;;;;;;;;;;;;;31.67;20.88;98591.37;4430227;32;34275;-90
2022/07/26 01:06:52;;;;;;;;;;;;;;;31.50;21.09;98576.72;4429460;32;33767;-91
2022/07/26 01:09:19;;;;;;;;;;;;;;;31.34;21.20;98579.81;4395615;32;32954;-89
2022/07/26 01:11:46;;;;;;;;;;;;;;;31.42;21.24;98568.47;4407896;32;32809;-91
2022/07/26 01:14:15;;;;;;;;;;;;;;;31.42;21.30;98574.66;4408310;32;35170;-90
2022/07/26 01:16:43;;;;;;;;;;;;;;;31.53;21.11;98570.25;4408037;32;33027;-90
2022/07/26 01:19:10;;;;;;;;;;;;;;;31.36;21.39;98574.31;4422217;32;33703;-91
2022/07/26 01:21:37;;;;;;;;;;;;;;;31.34;21.45;98566.41;4422000;32;35299;-90
2022/07/26 01:24:05;;;;;;;;;;;;;;;31.45;21.45;98563.72;4409494;32;33880;-91
2022/07/26 01:26:33;;;;;;;;;;;;;;;31.35;21.60;98565.44;4437395;32;33373;-91
2022/07/26 01:29:00;;;;;;;;;;;;;;;31.36;21.79;98559.09;4422686;32;33799;-90
2022/07/26 01:31:27;;;;;;;;;;;;;;;31.29;21.92;98563.22;4410367;32;34377;-90
2022/07/26 01:33:55;;;;;;;;;;;;;;;31.42;21.79;98555.91;4437204;32;34974;-91
2022/07/26 01:36:22;;;;;;;;;;;;;;;31.27;22.25;98555.31;4423289;32;33200;-90
2022/07/26 01:38:49;;;;;;;;;;;;;;;31.41;22.12;98554.22;4421196;32;33886;-90
2022/07/26 01:41:17;;;;;;;;;;;;;;;31.50;22.01;98539.22;4421944;32;34063;-91
2022/07/26 01:43:57;;;;;;;;;;;;;;;31.38;22.24;98538.41;4407665;32;33705;-91
2022/07/26 01:46:24;;;;;;;;;;;;;;;31.41;22.21;98535.47;4408511;32;33303;-90
2022/07/26 01:48:51;;;;;;;;;;;;;;;31.02;22.78;98534.19;4407919;32;33910;-90
2022/07/26 01:51:19;;;;;;;;;;;;;;;31.21;22.64;98538.91;4407944;32;35157;-90
2022/07/26 01:53:46;;;;;;;;;;;;;;;31.33;22.59;98534.38;4421528;32;35271;-90
2022/07/26 01:56:13;;;;;;;;;;;;;;;31.34;22.57;98538.78;4407787;32;33763;-90
2022/07/26 01:58:41;;;;;;;;;;;;;;;31.25;22.77;98533.19;4408429;32;33050;-90
2022/07/26 02:01:08;;;;;;;;;;;;;;;31.27;22.85;98533.91;4436739;32;33700;-90
2022/07/26 02:03:36;;;;;;;;;;;;;;;31.30;22.86;98534.62;4410287;32;32932;-89
2022/07/26 02:06:04;;;;;;;;;;;;;;;31.19;23.05;98532.84;4437048;32;33349;-90
2022/07/26 02:08:31;;;;;;;;;;;;;;;31.18;23.27;98539.19;4422818;32;34098;-90
2022/07/26 02:10:59;;;;;;;;;;;;;;;31.27;23.24;98528.53;4391557;32;32996;-90
2022/07/26 02:13:34;;;;;;;;;;;;;;;31.29;23.18;98535.59;4380791;32;34494;-90
2022/07/26 02:16:06;;;;;;;;;;;;;;;31.33;23.34;98540.63;4406365;32;34271;-90
2022/07/26 02:18:35;;;;;;;;;;;;;;;31.19;23.42;98531.00;4392614;32;34092;-89
2022/07/26 02:21:03;;;;;;;;;;;;;;;31.15;23.41;98539.41;4392432;32;33836;-90
2022/07/26 02:23:30;;;;;;;;;;;;;;;31.08;23.49;98543.56;4406454;32;34536;-90
2022/07/26 02:25:58;;;;;;;;;;;;;;;31.06;23.55;98550.88;4416070;32;33932;-89
2022/07/26 02:28:26;;;;;;;;;;;;;;;31.06;23.63;98545.50;4421794;32;34138;-89
2022/07/26 02:30:53;;;;;;;;;;;;;;;31.04;23.50;98542.97;4436893;32;34246;-91
2022/07/26 02:33:22;;;;;;;;;;;;;;;31.00;23.60;98553.06;4417248;32;34452;-90
2022/07/26 02:35:50;;;;;;;;;;;;;;;31.01;23.55;98541.38;4422951;32;33265;-90
2022/07/26 02:38:17;;;;;;;;;;;;;;;30.96;23.62;98546.28;4422788;32;34006;-89
2022/07/26 02:40:45;;;;;;;;;;;;;;;31.01;23.56;98546.72;4422614;32;33363;-89
2022/07/26 02:43:13;;;;;;;;;;;;;;;30.89;23.70;98544.22;4434696;32;35101;-90
2022/07/26 02:45:40;;;;;;;;;;;;;;;30.87;23.75;98549.66;4407800;32;33296;-89
2022/07/26 02:48:07;;;;;;;;;;;;;;;30.74;23.91;98549.81;4421274;32;34701;-90
2022/07/26 02:50:35;;;;;;;;;;;;;;;30.78;23.98;98543.25;4421074;32;34361;-88
2022/07/26 02:53:02;;;;;;;;;;;;;;;30.76;24.00;98537.19;4394858;32;33635;-89
2022/07/26 02:55:29;;;;;;;;;;;;;;;30.76;23.93;98534.50;4407356;32;32400;-90
2022/07/26 02:57:57;;;;;;;;;;;;;;;30.94;23.81;98539.31;4408287;32;34869;-90
2022/07/26 03:00:25;;;;;;;;;;;;;;;30.78;24.00;98537.03;4436811;32;34278;-91
2022/07/26 03:02:52;;;;;;;;;;;;;;;30.80;24.01;98537.78;4409920;32;34119;-90
2022/07/26 03:05:20;;;;;;;;;;;;;;;30.66;24.17;98538.84;4422622;32;33731;-89
2022/07/26 03:07:47;;;;;;;;;;;;;;;30.72;24.09;98545.50;4422750;32;34106;-88
2022/07/26 03:10:14;;;;;;;;;;;;;;;30.84;24.00;98546.38;4436626;32;34035;-91
2022/07/26 03:12:41;;;;;;;;;;;;;;;30.84;23.98;98541.91;4408362;32;35098;-90
2022/07/26 03:15:09;;;;;;;;;;;;;;;30.90;23.85;98541.41;4407276;32;34179;-90
2022/07/26 03:17:36;;;;;;;;;;;;;;;30.83;23.92;98540.19;4407497;32;34177;-90
2022/07/26 03:20:04;;;;;;;;;;;;;;;30.85;23.92;98543.59;4407393;32;34149;-90
2022/07/26 03:22:31;;;;;;;;;;;;;;;30.90;23.85;98540.56;4421417;32;34280;-90
2022/07/26 03:24:58;;;;;;;;;;;;;;;30.90;23.90;98548.56;4421274;32;33352;-90
2022/07/26 03:27:26;;;;;;;;;;;;;;;30.85;23.82;98548.97;4408068;32;33938;-90
2022/07/26 03:29:53;;;;;;;;;;;;;;;30.82;23.88;98553.69;4436590;32;34088;-89
2022/07/26 03:32:20;;;;;;;;;;;;;;;30.87;23.83;98547.00;4416081;32;33457;-89
2022/07/26 03:34:48;;;;;;;;;;;;;;;30.93;23.85;98549.19;4402447;32;33100;-89
2022/07/26 03:37:15;;;;;;;;;;;;;;;30.84;23.97;98547.25;4407259;32;33930;-90
2022/07/26 03:39:42;;;;;;;;;;;;;;;30.93;23.97;98541.16;4406894;32;32755;-90
2022/07/26 03:42:10;;;;;;;;;;;;;;;30.59;24.31;98540.31;4406814;32;34492;-90
2022/07/26 03:44:37;;;;;;;;;;;;;;;30.64;24.38;98535.44;4420840;32;33110;-90
2022/07/26 03:47:04;;;;;;;;;;;;;;;30.85;24.37;98527.53;4392083;32;34360;-90
2022/07/26 03:49:32;;;;;;;;;;;;;;;30.76;24.39;98530.94;4405514;32;34140;-90
2022/07/26 03:51:59;;;;;;;;;;;;;;;30.70;24.42;98529.59;4404802;32;34422;-90
2022/07/26 03:54:26;;;;;;;;;;;;;;;31.01;24.16;98528.00;4416992;32;33452;-91
2022/07/26 03:56:54;;;;;;;;;;;;;;;30.95;24.33;98523.16;4405247;32;34107;-90
2022/07/26 03:59:22;;;;;;;;;;;;;;;30.98;24.40;98525.56;4404071;32;33325;-89
2022/07/26 04:01:50;;;;;;;;;;;;;;;31.08;24.47;98522.16;4427857;32;35026;-90
2022/07/26 04:04:18;;;;;;;;;;;;;;;31.08;24.51;98523.00;4406759;32;33216;-90
2022/07/26 04:06:51;;;;;;;;;;;;;;;31.23;24.50;98515.53;4420759;32;33880;-90
2022/07/26 04:09:19;;;;;;;;;;;;;;;31.31;24.68;98513.09;4420604;32;34299;-90
2022/07/26 04:11:47;;;;;;;;;;;;;;;31.35;24.57;98509.19;4406826;32;34800;-90
2022/07/26 04:14:14;;;;;;;;;;;;;;;31.37;24.63;98501.88;4420817;32;33343;-90
2022/07/26 04:16:42;;;;;;;;;;;;;;;31.56;24.56;98494.97;4406701;32;34215;-89
2022/07/26 04:19:10;;;;;;;;;;;;;;;31.68;24.63;98502.84;4405199;32;33448;-90
2022/07/26 04:21:37;;;;;;;;;;;;;;;31.59;25.18;98516.13;4419329;32;35240;-89
2022/07/26 04:24:04;;;;;;;;;;;;;;;31.76;25.41;98507.53;4406559;32;33733;-90
2022/07/26 04:26:32;;;;;;;;;;;;;;;30.13;28.45;98513.63;4393711;32;33606;-90
2022/07/26 04:28:59;;;;;;;;;;;;;;;30.40;27.58;98503.47;4406492;32;35029;-89
2022/07/26 04:31:27;;;;;;;;;;;;;;;29.90;28.36;98518.94;4420396;32;34056;-90
2022/07/26 04:34:02;;;;;;;;;;;;;;;31.26;26.26;98532.19;4407513;32;33600;-90
2022/07/26 04:36:29;;;;;;;;;;;;;;;31.98;25.43;98553.03;4406467;32;34983;-90
2022/07/26 04:38:56;;;;;;;;;;;;;;;31.42;24.54;98622.03;4406140;32;33857;-87
2022/07/26 04:41:24;;;;;;;;;;;;;;;28.71;28.06;98635.28;4393511;32;32982;-92
2022/07/26 04:43:52;;;;;;;;;;;;;;;28.43;28.59;98604.38;4406799;32;33071;-88
2022/07/26 04:46:19;;;;;;;;;;;;;;;29.28;27.25;98575.22;4416190;32;35021;-88
2022/07/26 04:48:46;;;;;;;;;;;;;;;29.98;26.15;98604.72;4435560;32;34914;-87
2022/07/26 04:51:14;;;;;;;;;;;;;;;29.27;26.53;98589.53;4421460;32;34500;-92
2022/07/26 04:53:41;;;;;;;;;;;;;;;29.96;25.95;98601.28;4421342;32;33480;-92
2022/07/26 04:56:08;;;;;;;;;;;;;;;29.95;26.12;98602.28;4408917;32;34887;-91
2022/07/26 04:58:36;;;;;;;;;;;;;;;29.90;26.46;98591.09;4435422;32;34294;-90
2022/07/26 05:01:03;;;;;;;;;;;;;;;30.30;25.89;98585.38;4401460;32;34410;-90
2022/07/26 05:03:37;;;;;;;;;;;;;;;30.44;26.26;98590.50;4418652;32;33672;-90
2022/07/26 05:06:05;;;;;;;;;;;;;;;31.36;25.42;98587.72;4423187;32;33096;-91
2022/07/26 05:08:32;;;;;;;;;;;;;;;31.53;25.16;98597.06;4410613;32;35184;-88
2022/07/26 05:11:00;;;;;;;;;;;;;;;31.53;25.36;98583.66;4435497;32;33999;-90
2022/07/26 05:13:27;;;;;;;;;;;;;;;31.30;25.79;98578.38;4428147;32;33200;-92
2022/07/26 05:15:58;;;;;;;;;;;;;;;30.57;25.73;98577.00;4437333;32;34713;-88
2022/07/26 05:18:26;;;;;;;;;;;;;;;31.44;24.96;98583.44;4423484;32;34307;-91
2022/07/26 05:20:55;;;;;;;;;;;;;;;31.83;24.90;98590.97;4411424;32;34352;-90
2022/07/26 05:23:22;;;;;;;;;;;;;;;31.29;25.38;98587.31;4437575;32;34257;-91
2022/07/26 05:25:51;;;;;;;;;;;;;;;30.99;25.97;98591.53;4437312;32;34858;-91
2022/07/26 05:28:19;;;;;;;;;;;;;;;31.22;26.24;98586.16;4417963;32;33991;-91
2022/07/26 05:30:46;;;;;;;;;;;;;;;30.44;27.50;98587.84;4426967;32;35089;-92
2022/07/26 05:33:46;;;;;;;;;;;;;;;31.10;27.53;98593.31;4397626;32;32737;-93
2022/07/26 05:36:13;;;;;;;;;;;;;;;29.72;28.74;98584.47;4413765;32;33839;-92
2022/07/26 05:38:41;;;;;;;;;;;;;;;30.58;27.63;98591.28;4423989;32;34878;-92
2022/07/26 05:41:08;;;;;;;;;;;;;;;31.23;27.47;98585.16;4410724;32;34389;-88
2022/07/26 05:43:36;;;;;;;;;;;;;;;31.19;27.49;98581.03;4423632;32;33383;-88
2022/07/26 05:46:09;;;;;;;;;;;;;;;32.25;25.91;98580.28;4416076;32;34921;-95
2022/07/26 05:48:37;;;;;;;;;;;;;;;31.69;27.23;98587.59;4408108;32;33509;-90
2022/07/26 05:51:05;;;;;;;;;;;;;;;30.97;28.64;98588.12;4395797;32;33674;-88
2022/07/26 05:53:32;;;;;;;;;;;;;;;30.72;29.22;98580.31;4421619;32;33870;-89
2022/07/26 05:55:59;;;;;;;;;;;;;;;31.35;28.70;98581.50;4421835;32;34935;-89
2022/07/26 05:58:26;;;;;;;;;;;;;;;32.27;27.78;98576.47;4395521;32;33351;-90
2022/07/26 06:01:00;;;;;;;;;;;;;;;31.73;28.98;98588.19;4409762;32;34783;-94
2022/07/26 06:04:10;;;;;;;;;;;;;;;30.24;31.79;98589.41;4390410;32;34516;-90
2022/07/26 06:06:38;;;;;;;;;;;;;;;31.44;30.48;98587.94;4408521;32;34061;-94
2022/07/26 06:09:06;;;;;;;;;;;;;;;31.71;30.55;98588.34;4421966;32;35324;-93
2022/07/26 06:11:33;;;;;;;;;;;;;;;31.64;30.63;98591.66;4422421;32;33980;-94
2022/07/26 06:14:00;;;;;;;;;;;;;;;31.19;31.86;98589.91;4422042;32;33329;-90
2022/07/26 06:16:30;;;;;;;;;;;;;;;30.87;32.95;98599.69;4422917;32;34599;-92
2022/07/26 06:18:57;;;;;;;;;;;;;;;30.28;34.43;98592.69;4415688;32;34147;-95
2022/07/26 06:21:24;;;;;;;;;;;;;;;30.81;34.29;98589.47;4437069;32;35151;-94
2022/07/26 06:23:52;;;;;;;;;;;;;;;30.71;34.40;98597.34;4437354;32;33692;-92
2022/07/26 06:26:22;;;;;;;;;;;;;;;30.59;35.76;98599.16;4437074;32;35701;-94
2022/07/26 06:28:52;;;;;;;;;;;;;;;31.16;34.88;98597.34;4436811;32;35257;-94
2022/07/26 06:31:20;;;;;;;;;;;;;;;31.13;35.11;98586.88;4423119;32;34425;-90
2022/07/26 06:33:47;;;;;;;;;;;;;;;31.42;34.82;98601.47;4436153;32;33587;-91
2022/07/26 06:36:14;;;;;;;;;;;;;;;31.29;35.43;98587.31;4395195;32;34192;-89
2022/07/26 06:38:42;;;;;;;;;;;;;;;30.83;36.08;98582.16;4421714;32;35209;-91
2022/07/26 06:41:09;;;;;;;;;;;;;;;30.50;36.41;98590.03;4407509;32;34614;-90
2022/07/26 06:43:39;;;;;;;;;;;;;;;30.99;35.85;98591.53;4421649;32;34352;-93
2022/07/26 06:46:06;;;;;;;;;;;;;;;30.54;36.83;98590.66;4407667;32;33285;-92
2022/07/26 06:48:34;;;;;;;;;;;;;;;30.37;37.18;98586.59;4426011;32;34593;-92
2022/07/26 06:51:01;;;;;;;;;;;;;;;30.50;36.97;98571.31;4422943;32;34955;-91
2022/07/26 06:53:29;;;;;;;;;;;;;;;30.77;36.41;98581.69;4410913;32;32990;-89
2022/07/26 06:55:56;;;;;;;;;;;;;;;31.15;35.97;98576.91;4406247;32;34322;-90
2022/07/26 06:58:23;;;;;;;;;;;;;;;30.98;35.69;98586.28;4421696;32;34157;-93
2022/07/26 07:00:51;;;;;;;;;;;;;;;30.29;36.94;98573.84;4407746;32;35299;-89
2022/07/26 07:03:18;;;;;;;;;;;;;;;31.69;34.81;98570.66;4407334;32;32692;-91
2022/07/26 07:05:46;;;;;;;;;;;;;;;31.77;34.37;98575.37;4407635;32;35175;-94
2022/07/26 07:08:16;;;;;;;;;;;;;;;31.84;34.43;98569.38;4421971;32;33857;-94
2022/07/26 07:10:44;;;;;;;;;;;;;;;31.34;35.12;98566.41;4408564;32;34063;-96
2022/07/26 07:13:11;;;;;;;;;;;;;;;30.84;36.23;98560.66;4396241;32;33397;-92
2022/07/26 07:15:38;;;;;;;;;;;;;;;31.33;35.14;98567.41;4406730;32;35211;-92
2022/07/26 07:18:05;;;;;;;;;;;;;;;31.50;34.91;98566.84;4407384;32;34155;-92
2022/07/26 07:20:33;;;;;;;;;;;;;;;31.56;35.00;98569.97;4395388;32;35101;-92
2022/07/26 07:23:01;;;;;;;;;;;;;;;31.41;35.29;98564.94;4408071;32;33750;-89
2022/07/26 07:25:28;;;;;;;;;;;;;;;30.78;36.43;98569.16;4421360;32;34216;-90
2022/07/26 07:27:57;;;;;;;;;;;;;;;31.32;35.24;98578.22;4421089;32;34325;-94
2022/07/26 07:30:25;;;;;;;;;;;;;;;31.62;34.64;98574.84;4421100;32;35172;-91
2022/07/26 07:32:54;;;;;;;;;;;;;;;32.00;34.06;98573.47;4421197;32;34484;-91
2022/07/26 07:35:22;;;;;;;;;;;;;;;31.63;34.59;98571.19;4407802;32;34174;-93
2022/07/26 07:37:50;;;;;;;;;;;;;;;31.21;35.29;98571.03;4401617;32;34347;-90
2022/07/26 07:40:20;;;;;;;;;;;;;;;31.57;35.24;98577.06;4422991;32;35142;-93
2022/07/26 07:42:48;;;;;;;;;;;;;;;31.03;35.88;98578.75;4422631;32;34490;-87
2022/07/26 07:45:16;;;;;;;;;;;;;;;31.22;35.38;98580.78;4436353;32;34983;-92
2022/07/26 07:47:43;;;;;;;;;;;;;;;30.97;36.40;98576.56;4418895;32;33448;-92
2022/07/26 07:50:10;;;;;;;;;;;;;;;30.96;36.34;98582.91;4421001;32;34469;-91
2022/07/26 07:52:38;;;;;;;;;;;;;;;31.74;34.47;98593.41;4406746;32;33420;-93
2022/07/26 07:55:06;;;;;;;;;;;;;;;30.71;36.72;98590.16;4436326;32;34868;-92
2022/07/26 07:57:54;;;;;;;;;;;;;;;30.69;36.73;98585.94;4422186;32;34146;-93
2022/07/26 08:00:21;;;;;;;;;;;;;;;31.77;35.18;98595.00;4436462;32;34382;-92
2022/07/26 08:02:53;;;;;;;;;;;;;;;31.71;34.67;98601.75;4422678;32;31714;-91
2022/07/26 08:05:23;;;;;;;;;;;;;;;30.13;38.50;98601.84;4409735;32;33084;-94
2022/07/26 08:07:50;;;;;;;;;;;;;;;31.05;37.04;98605.38;4406991;32;34046;-89
2022/07/26 08:10:18;;;;;;;;;;;;;;;30.73;37.34;98593.59;4420848;32;35296;-89
2022/07/26 08:12:46;;;;;;;;;;;;;;;30.80;37.14;98591.31;4394211;32;31968;-95
2022/07/26 08:15:17;;;;;;;;;;;;;;;30.98;37.07;98584.44;4408302;32;34209;-92
2022/07/26 08:17:45;;;;;;;;;;;;;;;32.10;35.40;98585.13;4422555;32;34872;-95
2022/07/26 08:20:20;;;;;;;;;;;;;;;31.92;35.39;98587.53;4421386;32;34556;-93
2022/07/26 08:22:50;;;;;;;;;;;;;;;31.56;35.97;98581.56;4422579;32;33634;-95
2022/07/26 08:25:17;;;;;;;;;;;;;;;31.23;36.92;98593.19;4423943;32;34348;-92
2022/07/26 08:27:46;;;;;;;;;;;;;;;31.20;36.69;98596.13;4407763;32;34500;-93
2022/07/26 08:30:29;;;;;;;;;;;;;;;31.04;37.17;98595.66;4408292;32;34339;-92
2022/07/26 08:32:56;;;;;;;;;;;;;;;31.54;36.18;98596.06;4424942;32;33425;-96
2022/07/26 08:35:24;;;;;;;;;;;;;;;30.87;37.12;98584.47;4416911;32;34396;-95
2022/07/26 08:37:51;;;;;;;;;;;;;;;31.20;36.66;98585.41;4417586;32;35426;-84
2022/07/26 08:40:19;;;;;;;;;;;;;;;31.09;36.93;98598.81;4408840;32;33904;-90
2022/07/26 08:42:49;;;;;;;;;;;;;;;30.37;37.92;98573.25;4409552;32;33660;-95
2022/07/26 08:45:22;;;;;;;;;;;;;;;31.21;36.68;98582.59;4409156;32;34077;-94
2022/07/26 08:47:50;;;;;;;;;;;;;;;31.54;36.32;98571.94;4417031;32;33904;-95
2022/07/26 08:50:39;;;;;;;;;;;;;;;31.53;36.21;98572.94;4437943;32;34338;-89
2022/07/26 08:53:08;;;;;;;;;;;;;;;31.41;36.57;98572.97;4412339;32;34216;-94
2022/07/26 08:55:36;;;;;;;;;;;;;;;31.21;36.59;98585.25;4425306;32;34052;-92
2022/07/26 08:58:23;;;;;;;;;;;;;;;30.74;37.37;98581.06;4438236;32;34390;-94
2022/07/26 09:01:11;;;;;;;;;;;;;;;31.67;36.31;98588.69;4424258;32;34322;-92
2022/07/26 09:03:39;;;;;;;;;;;;;;;31.20;36.76;98588.09;4423106;32;33628;-82
2022/07/26 09:06:11;;;;;;;;;;;;;;;31.25;36.53;98604.63;4409979;32;33988;-94
2022/07/26 09:08:38;;;;;;;;;;;;;;;31.44;36.23;98599.53;4383593;32;33497;-95
2022/07/26 09:11:28;;;;;;;;;;;;;;;31.67;35.98;98604.78;4401663;32;34895;-94
2022/07/26 09:14:03;;;;;;;;;;;;;;;31.60;35.79;98614.31;4412434;32;33660;-94
2022/07/26 09:16:31;;;;;;;;;;;;;;;31.59;36.15;98617.97;4437564;32;33995;-94
2022/07/26 09:19:16;;;;;;;;;;;;;;;30.56;37.83;98622.63;4425485;32;33805;-94
2022/07/26 09:21:45;;;;;;;;;;;;;;;31.36;37.10;98636.78;4438658;32;34570;-93
2022/07/26 09:24:13;;;;;;;;;;;;;;;30.89;37.38;98646.78;4424100;32;33291;-92
2022/07/26 09:26:40;;;;;;;;;;;;;;;31.46;36.49;98651.13;4411481;32;34536;-91
2022/07/26 09:29:09;;;;;;;;;;;;;;;30.50;38.42;98672.97;4418598;32;34239;-96
2022/07/26 09:31:38;;;;;;;;;;;;;;;31.05;37.67;98683.03;4383043;32;32864;-93
2022/07/26 09:34:05;;;;;;;;;;;;;;;31.13;37.73;98696.66;4422156;32;33711;-90
2022/07/26 09:36:48;;;;;;;;;;;;;;;30.39;38.57;98723.75;4422512;32;34052;-95
2022/07/26 09:39:15;;;;;;;;;;;;;;;30.59;38.43;98742.78;4408273;32;34125;-89
2022/07/26 09:41:43;;;;;;;;;;;;;;;30.29;38.88;98760.19;4410533;32;33494;-91
2022/07/26 09:44:28;;;;;;;;;;;;;;;29.38;40.65;98748.97;4420520;32;33612;-88
2022/07/26 09:46:57;;;;;;;;;;;;;;;30.17;38.99;98721.00;4421857;32;35028;-89
2022/07/26 09:49:24;;;;;;;;;;;;;;;29.41;43.54;98696.19;4407363;32;33448;-89
2022/07/26 09:52:13;;;;;;;;;;;;;;;28.80;44.53;98696.03;4396906;32;33542;-89
2022/07/26 09:54:44;;;;;;;;;;;;;;;29.74;43.29;98719.66;4407748;32;33379;-89
2022/07/26 09:57:16;;;;;;;;;;;;;;;29.14;46.43;98743.56;4411093;32;35098;-91
2022/07/26 09:59:43;;;;;;;;;;;;;;;27.87;48.36;98742.25;4418525;32;35211;-88
2022/07/26 10:02:12;;;;;;;;;;;;;;;29.15;46.99;98702.56;4406048;32;34177;-85
2022/07/26 10:04:40;;;;;;;;;;;;;;;29.29;47.84;98681.91;4422932;32;33111;-87
2022/07/26 10:07:11;;;;;;;;;;;;;;;29.45;49.15;98679.00;4408132;32;35044;-87
2022/07/26 10:09:40;;;;;;;;;;;;;;;28.13;51.70;98688.09;4407965;32;33746;-87
2022/07/26 10:12:08;;;;;;;;;;;;;;;27.40;53.67;98682.25;4408618;32;34317;-87
2022/07/26 10:14:35;;;;;;;;;;;;;;;27.31;54.45;98704.94;4407839;32;33639;-88
2022/07/26 10:17:22;;;;;;;;;;;;;;;27.59;54.62;98709.38;4423959;32;34026;-95
2022/07/26 10:20:01;;;;;;;;;;;;;;;27.17;54.74;98735.13;4423251;32;34917;-88
2022/07/26 10:22:29;;;;;;;;;;;;;;;27.76;55.53;98729.63;4436643;32;35056;-87
2022/07/26 10:24:58;;;;;;;;;;;;;;;27.50;55.37;98725.94;4422857;32;34032;-86
2022/07/26 10:27:35;;;;;;;;;;;;;;;27.93;55.37;98744.53;4418207;32;34857;-88
2022/07/26 10:30:14;;;;;;;;;;;;;;;27.53;54.71;98743.53;4410112;32;35199;-86
2022/07/26 10:33:00;;;;;;;;;;;;;;;27.56;55.12;98762.84;4421577;32;34029;-90
2022/07/26 10:35:27;;;;;;;;;;;;;;;27.52;54.91;98763.12;4421554;32;33127;-86
2022/07/26 10:38:02;;;;;;;;;;;;;;;27.30;56.55;98774.25;4421606;32;33723;-89
2022/07/26 10:40:30;;;;;;;;;;;;;;;27.37;55.15;98767.63;4407682;32;34486;-91
2022/07/26 10:43:07;;;;;;;;;;;;;;;26.64;57.95;98768.44;4421339;32;35129;-90
2022/07/26 10:46:13;;;;;;;;;;;;;;;27.12;56.25;98758.50;4409932;32;34522;-86
2022/07/26 10:49:03;;;;;;;;;;;;;;;26.83;57.56;98767.34;4423886;32;34067;-86
2022/07/26 10:51:31;;;;;;;;;;;;;;;27.19;57.08;98758.09;4436661;32;35315;-88
2022/07/26 10:54:03;;;;;;;;;;;;;;;26.48;58.10;98766.78;4398078;32;34207;-91
2022/07/26 10:56:30;;;;;;;;;;;;;;;27.04;56.45;98768.69;4422975;32;34257;-87
2022/07/26 10:59:00;;;;;;;;;;;;;;;27.62;56.78;98785.59;4406284;32;34256;-88
2022/07/26 11:01:31;;;;;;;;;;;;;;;27.42;55.43;98781.47;4411404;32;34468;-88
2022/07/26 11:03:58;;;;;;;;;;;;;;;27.24;55.95;98783.50;4407760;32;34284;-88
2022/07/26 11:06:26;;;;;;;;;;;;;;;27.98;54.59;98779.72;4436463;32;34488;-89
2022/07/26 11:08:54;;;;;;;;;;;;;;;27.11;55.76;98769.22;4389175;32;32777;-88
2022/07/26 11:11:28;;;;;;;;;;;;;;;27.48;54.57;98767.78;4406000;32;35352;-87
2022/07/26 11:14:06;;;;;;;;;;;;;;;27.73;54.63;98761.78;4406085;32;35319;-87
2022/07/26 11:16:42;;;;;;;;;;;;;;;28.17;53.96;98757.19;4399538;32;32696;-90
2022/07/26 11:19:14;;;;;;;;;;;;;;;27.22;55.54;98757.91;4407506;32;34360;-89
2022/07/26 11:21:42;;;;;;;;;;;;;;;27.61;55.10;98755.41;4422233;32;35092;-87
2022/07/26 11:24:10;;;;;;;;;;;;;;;28.16;54.00;98750.16;4407278;32;34316;-87
2022/07/26 11:26:41;;;;;;;;;;;;;;;28.10;53.65;98751.41;4407338;32;32640;-87
2022/07/26 11:29:08;;;;;;;;;;;;;;;28.29;53.00;98756.38;4407250;32;35087;-88
2022/07/26 11:31:46;;;;;;;;;;;;;;;28.43;52.44;98756.34;4421127;32;34167;-89
2022/07/26 11:34:24;;;;;;;;;;;;;;;28.12;53.22;98763.69;4420703;32;34401;-88
2022/07/26 11:36:53;;;;;;;;;;;;;;;28.16;53.12;98766.16;4422406;32;33435;-87
2022/07/26 11:39:20;;;;;;;;;;;;;;;27.76;53.49;98758.06;4422827;32;34320;-89
2022/07/26 11:41:48;;;;;;;;;;;;;;;27.62;54.16;98759.81;4422586;32;33915;-91
2022/07/26 11:44:16;;;;;;;;;;;;;;;28.05;53.42;98759.72;4422336;32;34620;-90
2022/07/26 11:46:46;;;;;;;;;;;;;;;28.86;50.84;98753.44;4422722;32;33589;-90
2022/07/26 11:49:15;;;;;;;;;;;;;;;29.13;50.57;98748.03;4434584;32;34888;-89
2022/07/26 11:51:49;;;;;;;;;;;;;;;28.61;51.79;98754.28;4419075;32;35352;-91
2022/07/26 11:54:17;;;;;;;;;;;;;;;28.98;51.19;98752.63;4420789;32;35065;-89
2022/07/26 11:57:00;;;;;;;;;;;;;;;28.28;52.40;98749.34;4409096;32;32712;-89
2022/07/26 11:59:32;;;;;;;;;;;;;;;27.92;53.00;98749.94;4409160;32;870109;-86
2022/07/26 12:02:01;;;;;;;;;;;;;;;27.35;54.14;98764.19;4409593;32;33644;-91
2022/07/26 12:04:30;;;;;;;;;;;;;;;27.92;52.40;98757.94;4422261;32;35181;-88
2022/07/26 12:06:57;;;;;;;;;;;;;;;27.93;53.65;98752.53;4422328;32;34328;-88
2022/07/26 12:09:31;;;;;;;;;;;;;;;26.85;55.61;98753.00;4419333;32;33083;-90
2022/07/26 12:11:58;;;;;;;;;;;;;;;27.97;52.88;98748.72;4421095;32;34535;-90
2022/07/26 12:14:30;;;;;;;;;;;;;;;28.02;52.32;98746.59;4399453;32;34433;-90
2022/07/26 12:16:57;;;;;;;;;;;;;;;28.72;50.76;98745.53;4411763;32;33173;-91
2022/07/26 12:19:26;;;;;;;;;;;;;;;28.53;51.18;98738.78;4411998;32;33951;-92
2022/07/26 12:21:54;;;;;;;;;;;;;;;28.23;52.32;98735.50;4412021;32;34179;-91
2022/07/26 12:24:38;;;;;;;;;;;;;;;28.89;50.94;98737.22;4414768;32;34185;-90
2022/07/26 12:27:09;;;;;;;;;;;;;;;28.31;51.30;98733.16;4441164;32;34334;-92
2022/07/26 12:29:36;;;;;;;;;;;;;;;28.06;52.12;98729.44;4426122;32;34319;-88
2022/07/26 12:32:06;;;;;;;;;;;;;;;28.78;49.78;98739.78;4425316;32;34107;-88
2022/07/26 12:34:39;;;;;;;;;;;;;;;28.72;49.92;98730.38;4414584;32;35316;-88
2022/07/26 12:37:14;;;;;;;;;;;;;;;29.05;48.46;98729.03;4431175;32;34413;-91
2022/07/26 12:39:42;;;;;;;;;;;;;;;28.44;50.46;98739.41;4440872;32;34230;-92
2022/07/26 12:42:20;;;;;;;;;;;;;;;28.86;49.73;98740.09;4426780;32;33998;-89
2022/07/26 12:44:48;;;;;;;;;;;;;;;28.70;50.28;98744.78;4440713;32;35402;-87
2022/07/26 12:47:15;;;;;;;;;;;;;;;28.95;48.64;98739.47;4426333;32;33710;-88
2022/07/26 12:49:46;;;;;;;;;;;;;;;28.68;48.79;98752.03;4440551;32;34187;-92
2022/07/26 12:52:15;;;;;;;;;;;;;;;28.25;50.48;98734.41;4423373;32;35021;-89
2022/07/26 12:54:46;;;;;;;;;;;;;;;28.17;51.24;98733.22;4426979;32;33800;-93
2022/07/26 12:57:13;;;;;;;;;;;;;;;28.00;51.52;98729.88;4441576;32;33018;-94
2022/07/26 12:59:41;;;;;;;;;;;;;;;27.85;51.74;98725.53;4414661;32;34236;-87